Lagoon City, Ontario

Past 24 Hour Conditions

Date / Time
(EDT)
Conditions Temp
(°F)
Humidity
(%)
Dew Point
(°F)
Wind
(mph)
Pressure
(inches)
Visibility
(miles)
23 October 2014
9:00 N/A 42 83 37 N 9 30.2 N/A
8:00 N/A 40 86 37 N 7 30.2 N/A
7:00 N/A 41 86 37 NNW 5 30.2 N/A
6:00 N/A 41 86 37 NNW 8 30.2 N/A
5:00 N/A 41 87 37 NNW 6 30.2 N/A
4:00 N/A 42 85 38 N 6 30.2 N/A
3:00 N/A 43 83 38 N 6 30.2 N/A
2:00 N/A 43 87 39 NNW 6 30.2 N/A
1:00 N/A 44 83 39 N 5 30.2 N/A
00:00 N/A 45 84 40 NNW 5 30.2 N/A
22 October 2014
23:00 N/A 45 85 41 NE 4 30.2 N/A
22:00 N/A 47 78 41 NNE 3 30.2 N/A
21:00 N/A 49 73 41 NE 5 30.2 N/A
20:00 N/A 51 67 41 NNE 5 30.2 N/A
19:00 N/A 53 62 41 NNE 5 30.2 N/A
18:00 N/A 56 54 40 N 4 30.2 N/A
17:00 N/A 57   49 38 NNE 7 30.2 N/A
16:00 N/A 56 53 39 NNW 8 30.2 N/A
15:00 N/A 54 49 35 N 4 30.2 N/A
14:00 N/A 53 51 35 NNE 11 30.2 N/A
13:00 N/A 50 56 35 N 11 30.3 N/A
12:00 N/A 47 61 34 ENE 6 30.3 N/A
11:00 N/A 44 65 33 NNE 11 30.3 N/A
10:00 N/A 41 74 33 N 8 30.3 N/A
9:00 N/A 37   83 32 NNE 9 30.3 N/A
N/A Not available
↑ Highest temperature
↓ Lowest temperature

If you require additional historical weather information, please visit Climate Data Online.

Date modified: